Endeavor — WDE2605 — position and weather

sailwx.info

Track history (hours):
 
Tides and Currents Weather Stations Pressure Air Temp Water Temp Dewpoint Dewpoint Depression Visibility Wind Speed Wind Dir Waves Ship Positions

Endeavor

Owner: Daniel J. Fisheries, Warrenton, OR. More information available from US FCC via Universal Licensing System and Coast Guard Vessel Documentation Center.

Last reported at 2018-Apr-20 03:07 UTC. Time now 2018-Apr-20 12:48 UTC.
Position N 47°08' W 124°51'.

Type: Fishing. MMSI: 367327250.

Date/timePositionNaut miles runAvg speedWind from/ knotsBaromVisibWave heightAir tempDewpointWater temp
2018-Apr-20 03:07N 47°08' W 124°51'5 0.3
2018-Apr-19 11:42N 47°02' W 124°53'0 0.0
2018-Apr-19 11:21N 47°02' W 124°53'0 0.3
2018-Apr-19 10:48N 47°02' W 124°53'0 0.4
2018-Apr-19 10:30N 47°02' W 124°53'0 0.4
2018-Apr-19 10:00N 47°02' W 124°52'0 0.4
2018-Apr-19 09:27N 47°03' W 124°52'0 0.4
2018-Apr-19 09:00N 47°03' W 124°52'1 0.5
2018-Apr-19 07:57N 47°03' W 124°51'0 0.6
2018-Apr-19 07:25N 47°03' W 124°51'0 0.6
2018-Apr-19 06:59N 47°04' W 124°51'0 0.5
2018-Apr-19 06:15N 47°04' W 124°51'3 0.7
2018-Apr-19 02:21N 47°02' W 124°49'3 1.4
2018-Apr-19 00:24N 46°59' W 124°47'1 1.4
2018-Apr-18 23:59N 46°59' W 124°48'1 2.0
2018-Apr-18 23:30N 46°60' W 124°49'0 0.4
2018-Apr-18 23:00N 46°60' W 124°49'1 1.4
2018-Apr-18 22:13N 46°59' W 124°48'1 1.5
2018-Apr-18 21:46N 46°59' W 124°47'0 1.7
2018-Apr-18 21:30N 46°58' W 124°47'1 1.8
2018-Apr-18 21:00N 46°58' W 124°46'1 1.1
2018-Apr-18 20:30N 46°58' W 124°45'4 2.5
2018-Apr-18 19:02N 46°54' W 124°43'1 5.8
2018-Apr-18 18:55N 46°53' W 124°43'3 5.9
2018-Apr-18 18:25N 46°51' W 124°42'2 2.1
2018-Apr-18 17:39N 46°49' W 124°40'0 1.8
2018-Apr-18 17:29N 46°49' W 124°40'1 2.1
2018-Apr-18 17:00N 46°48' W 124°40'3 5.1
2018-Apr-18 16:31N 46°45' W 124°40'1 1.9
2018-Apr-18 16:00N 46°45' W 124°40'1 1.5
2018-Apr-18 15:30N 46°44' W 124°40'1 1.7
2018-Apr-18 15:00N 46°43' W 124°40'1 2.0
2018-Apr-18 14:31N 46°43' W 124°39'1 1.2
2018-Apr-18 14:00N 46°44' W 124°38'1 2.0
2018-Apr-18 13:27N 46°44' W 124°39'0 0.8
2018-Apr-18 13:00N 46°44' W 124°39'1 2.4
2018-Apr-18 12:30N 46°44' W 124°37'1 1.1
2018-Apr-18 12:01N 46°43' W 124°37'1 1.2
2018-Apr-18 11:26N 46°43' W 124°37'4 8.3
2018-Apr-18 10:57N 46°39' W 124°33'4 8.3
2018-Apr-18 10:30N 46°36' W 124°31'4 8.5
2018-Apr-18 10:01N 46°33' W 124°27'4 8.8
2018-Apr-18 09:30N 46°29' W 124°23'5 8.8
2018-Apr-18 08:56N 46°25' W 124°19'4 8.6
2018-Apr-18 08:30N 46°22' W 124°16'4 8.6
2018-Apr-18 08:00N 46°19' W 124°12'4 8.1
2018-Apr-18 07:31N 46°16' W 124°08'4 6.8
2018-Apr-18 06:52N 46°15' W 124°02'3 7.2
2018-Apr-18 06:30N 46°14' W 123°59'4 7.6
2018-Apr-18 06:00N 46°11' W 123°55'1 2.5
2018-Apr-18 05:31N 46°10' W 123°55'0 0.0
2018-Apr-18 05:00N 46°10' W 123°55'0 0.0
2018-Apr-18 04:30N 46°10' W 123°55'0 0.0
2018-Apr-18 04:00N 46°10' W 123°55'0 0.0
2018-Apr-18 03:31N 46°10' W 123°55'0 0.0
2018-Apr-18 03:00N 46°10' W 123°55'0 0.0
2018-Apr-18 02:30N 46°10' W 123°55'0 0.0
2018-Apr-18 02:00N 46°10' W 123°55'0 0.0
2018-Apr-18 01:30N 46°10' W 123°55'0 0.0
2018-Apr-18 01:01N 46°10' W 123°55'0 0.0
2018-Apr-18 00:30N 46°10' W 123°55'0 0.0
2018-Apr-18 00:01N 46°10' W 123°55'0 0.0
2018-Apr-17 23:30N 46°10' W 123°55'0 0.0
2018-Apr-17 23:01N 46°10' W 123°55'0 0.0
2018-Apr-17 22:31N 46°10' W 123°55'0 0.0
2018-Apr-17 22:00N 46°10' W 123°55'0 0.0
2018-Apr-17 21:31N 46°10' W 123°55'0 0.0
2018-Apr-17 21:00N 46°10' W 123°55'0 0.0
2018-Apr-17 20:31N 46°10' W 123°55'0 0.0
2018-Apr-17 20:01N 46°10' W 123°55'0 0.0
2018-Apr-17 19:10N 46°10' W 123°55'0 0.0
2018-Apr-17 19:00N 46°10' W 123°55'0 0.0
2018-Apr-17 18:28N 46°10' W 123°55'0 0.0
2018-Apr-17 18:00N 46°10' W 123°55'0 0.0
2018-Apr-17 17:29N 46°10' W 123°55'0 0.0
2018-Apr-17 17:00N 46°10' W 123°55'0 0.0
2018-Apr-17 16:15N 46°10' W 123°55'0 0.0
2018-Apr-17 16:00N 46°10' W 123°55'0 0.0
2018-Apr-17 15:30N 46°10' W 123°55'0 0.0
2018-Apr-17 15:00N 46°10' W 123°55'0 0.0
2018-Apr-17 14:30N 46°10' W 123°55'0 0.0
2018-Apr-17 14:00N 46°10' W 123°55'0 0.0
2018-Apr-17 13:30N 46°10' W 123°55'0 0.0
2018-Apr-17 12:53N 46°10' W 123°55'0 0.0
2018-Apr-17 12:30N 46°10' W 123°55'0 0.0
2018-Apr-17 12:00N 46°10' W 123°55'0 0.0
2018-Apr-17 11:31N 46°10' W 123°55'0 0.0
2018-Apr-17 10:52N 46°10' W 123°55'0 0.0
2018-Apr-17 10:30N 46°10' W 123°55'0 0.0
2018-Apr-17 10:00N 46°10' W 123°55'0 0.0
2018-Apr-17 09:30N 46°10' W 123°55'0 0.0
2018-Apr-17 08:51N 46°10' W 123°55'0 0.0
2018-Apr-17 08:31N 46°10' W 123°55'0 0.0
2018-Apr-17 07:59N 46°10' W 123°55'0 0.0
2018-Apr-17 07:30N 46°10' W 123°55'0 0.0
2018-Apr-17 06:50N 46°10' W 123°55'0 0.0
2018-Apr-17 06:30N 46°10' W 123°55'0 0.0
2018-Apr-17 05:21N 46°10' W 123°55'0 0.0
2018-Apr-17 05:00N 46°10' W 123°55'0 0.0
2018-Apr-17 04:30N 46°10' W 123°55'0 0.0
2018-Apr-17 04:00N 46°10' W 123°55'0 0.0
2018-Apr-17 03:31N 46°10' W 123°55'0 0.0
2018-Apr-17 03:01N 46°10' W 123°55'0 0.0
2018-Apr-17 02:30N 46°10' W 123°55'0 0.0
2018-Apr-17 02:00N 46°10' W 123°55'0 0.0
2018-Apr-17 01:30N 46°10' W 123°55'0 0.0
2018-Apr-17 01:00N 46°10' W 123°55'0 0.0
2018-Apr-17 00:23N 46°10' W 123°55'0 0.0
2018-Apr-17 00:00N 46°10' W 123°55'0 0.0
2018-Apr-16 23:24N 46°10' W 123°55'0 0.0
2018-Apr-16 23:00N 46°10' W 123°55'0 0.0
2018-Apr-16 22:30N 46°10' W 123°55'0 0.0
2018-Apr-16 22:01N 46°10' W 123°55'0 0.0
2018-Apr-16 21:31N 46°10' W 123°55'0 0.0
2018-Apr-16 21:00N 46°10' W 123°55'0 0.0
2018-Apr-16 20:21N 46°10' W 123°55'0 0.0
2018-Apr-16 20:01N 46°10' W 123°55'0 0.0
2018-Apr-16 19:28N 46°10' W 123°55'0 0.0
2018-Apr-16 19:00N 46°10' W 123°55'0 0.0
2018-Apr-16 18:31N 46°10' W 123°55'0 0.0
2018-Apr-16 18:01N 46°10' W 123°55'0 0.0
2018-Apr-16 17:30N 46°10' W 123°55'0 0.0
2018-Apr-16 17:01N 46°10' W 123°55'0 0.0
2018-Apr-16 16:22N 46°10' W 123°55'0 0.0
2018-Apr-16 15:53N 46°10' W 123°55'0 0.0
2018-Apr-16 15:30N 46°10' W 123°55'0 0.0
2018-Apr-16 15:00N 46°10' W 123°55'0 0.0
2018-Apr-16 14:31N 46°10' W 123°55'0 0.0
2018-Apr-16 14:01N 46°10' W 123°55'0 0.0
2018-Apr-16 13:31N 46°10' W 123°55'0 0.0
2018-Apr-16 13:00N 46°10' W 123°55'0 0.0
2018-Apr-16 12:31N 46°10' W 123°55'0 0.0
2018-Apr-16 12:01N 46°10' W 123°55'0 0.0
2018-Apr-16 11:30N 46°10' W 123°55'0 0.0
2018-Apr-16 11:00N 46°10' W 123°55'0 0.0
2018-Apr-16 10:31N 46°10' W 123°55'0 0.0
2018-Apr-16 10:00N 46°10' W 123°55'0 0.0
2018-Apr-16 09:31N 46°10' W 123°55'0 0.0
2018-Apr-16 09:00N 46°10' W 123°55'0 0.0
2018-Apr-16 08:31N 46°10' W 123°55'0 0.0
2018-Apr-16 08:00N 46°10' W 123°55'0 0.0
2018-Apr-16 07:31N 46°10' W 123°55'0 0.0
2018-Apr-16 07:00N 46°10' W 123°55'0 0.0
2018-Apr-16 06:31N 46°10' W 123°55'0 0.0
2018-Apr-16 06:01N 46°10' W 123°55'0 0.0
2018-Apr-16 05:31N 46°10' W 123°55'0 0.0
2018-Apr-16 05:01N 46°10' W 123°55'0 0.0
2018-Apr-16 04:31N 46°10' W 123°55'0 0.0
2018-Apr-16 04:00N 46°10' W 123°55'0 0.0
2018-Apr-16 03:30N 46°10' W 123°55'0 0.0
2018-Apr-16 03:00N 46°10' W 123°55'0 0.0
2018-Apr-16 02:31N 46°10' W 123°55'0 0.0
2018-Apr-16 02:00N 46°10' W 123°55'0 0.0
2018-Apr-16 01:31N 46°10' W 123°55'0 0.0
2018-Apr-16 01:00N 46°10' W 123°55'0 0.0
2018-Apr-16 00:30N 46°10' W 123°55'0 0.0
2018-Apr-16 00:00N 46°10' W 123°55'0 0.0
2018-Apr-15 23:30N 46°10' W 123°55'0 0.0
2018-Apr-15 23:01N 46°10' W 123°55'0 0.0
2018-Apr-15 22:30N 46°10' W 123°55'0 0.0
2018-Apr-15 22:00N 46°10' W 123°55'0 0.0
2018-Apr-15 21:31N 46°10' W 123°55'0 0.0
2018-Apr-15 21:00N 46°10' W 123°55'0 0.0
2018-Apr-15 20:31N 46°10' W 123°55'0 0.0
2018-Apr-15 20:01N 46°10' W 123°55'0 0.0
2018-Apr-15 19:31N 46°10' W 123°55'0 0.0
2018-Apr-15 19:01N 46°10' W 123°55'0 0.0
2018-Apr-15 18:31N 46°10' W 123°55'0 0.0
2018-Apr-15 18:01N 46°10' W 123°55'0 0.0
2018-Apr-15 17:30N 46°10' W 123°55'0 0.0
2018-Apr-15 17:01N 46°10' W 123°55'0 0.0
2018-Apr-15 16:30N 46°10' W 123°55'0 0.0
2018-Apr-15 16:01N 46°10' W 123°55'0 0.0
2018-Apr-15 15:31N 46°10' W 123°55'0 0.0
2018-Apr-15 15:00N 46°10' W 123°55'0 0.0
2018-Apr-15 14:31N 46°10' W 123°55'0 0.0
2018-Apr-15 14:01N 46°10' W 123°55'0 0.0
2018-Apr-15 13:31N 46°10' W 123°55'0 0.0
2018-Apr-15 13:00N 46°10' W 123°55'0 0.0
2018-Apr-15 12:30N 46°10' W 123°55'0 0.0
2018-Apr-15 12:01N 46°10' W 123°55'0 0.0
2018-Apr-15 11:30N 46°10' W 123°55'0 0.0
2018-Apr-15 11:01N 46°10' W 123°55'0 0.0
2018-Apr-15 10:31N 46°10' W 123°55'0 0.0
2018-Apr-15 09:12N 46°10' W 123°55'0 0.0
2018-Apr-15 09:01N 46°10' W 123°55'0 0.0
2018-Apr-15 08:31N 46°10' W 123°55'0 0.0
2018-Apr-15 08:01N 46°10' W 123°55'0 0.0
2018-Apr-15 07:30N 46°10' W 123°55'0 0.0
2018-Apr-15 07:01N 46°10' W 123°55'0 0.0
2018-Apr-15 06:31N 46°10' W 123°55'0 0.0
2018-Apr-15 06:01N 46°10' W 123°55'0 0.0
2018-Apr-15 05:31N 46°10' W 123°55'0 0.0
2018-Apr-15 05:00N 46°10' W 123°55'0 0.0
2018-Apr-15 04:31N 46°10' W 123°55'0 0.0
2018-Apr-15 04:00N 46°10' W 123°55'0 0.0
2018-Apr-15 03:31N 46°10' W 123°55'0 0.0
2018-Apr-15 03:01N 46°10' W 123°55'0 0.0
2018-Apr-15 02:31N 46°10' W 123°55'0 0.0
2018-Apr-15 02:01N 46°10' W 123°55'0 0.0
2018-Apr-15 01:31N 46°10' W 123°55'0 0.0
2018-Apr-15 01:00N 46°10' W 123°55'0 0.0
2018-Apr-15 00:30N 46°10' W 123°55'0 0.0
2018-Apr-15 00:01N 46°10' W 123°55'0 0.0
2018-Apr-14 23:31N 46°10' W 123°55'0 0.0
2018-Apr-14 23:01N 46°10' W 123°55'0 0.0
2018-Apr-14 22:31N 46°10' W 123°55'0 0.0
2018-Apr-14 22:00N 46°10' W 123°55'0 0.0
2018-Apr-14 21:30N 46°10' W 123°55'0 0.0
2018-Apr-14 21:00N 46°10' W 123°55'0 0.0
2018-Apr-14 20:30N 46°10' W 123°55'0 0.0
2018-Apr-14 20:01N 46°10' W 123°55'0 0.0
2018-Apr-14 19:31N 46°10' W 123°55'0 0.0
2018-Apr-14 19:01N 46°10' W 123°55'0 0.0
2018-Apr-14 18:31N 46°10' W 123°55'0 0.0
2018-Apr-14 18:00N 46°10' W 123°55'0 0.0
2018-Apr-14 17:30N 46°10' W 123°55'0 0.0
2018-Apr-14 17:00N 46°10' W 123°55'0 0.0
2018-Apr-14 16:31N 46°10' W 123°55'0 0.0
2018-Apr-14 16:00N 46°10' W 123°55'0 0.0
2018-Apr-14 15:30N 46°10' W 123°55'0 0.0
2018-Apr-14 15:01N 46°10' W 123°55'0 0.0
2018-Apr-14 14:31N 46°10' W 123°55'0 0.0
2018-Apr-14 14:01N 46°10' W 123°55'0 0.0
2018-Apr-14 13:31N 46°10' W 123°55'0 0.0
2018-Apr-14 12:59N 46°10' W 123°55'0 0.0
2018-Apr-14 12:30N 46°10' W 123°55'0 0.0
2018-Apr-14 12:01N 46°10' W 123°55'0 0.0
2018-Apr-14 11:31N 46°10' W 123°55'0 0.0
2018-Apr-14 11:01N 46°10' W 123°55'0 0.0
2018-Apr-14 10:05N 46°10' W 123°55'0 0.1
2018-Apr-14 10:00N 46°10' W 123°55'0 0.0
2018-Apr-14 09:30N 46°10' W 123°55'0 0.0
2018-Apr-14 08:55N 46°10' W 123°55'0 0.0
2018-Apr-14 08:31N 46°10' W 123°55'0 0.0
2018-Apr-14 08:00N 46°10' W 123°55'0 0.0
2018-Apr-14 07:30N 46°10' W 123°55'0 0.0
2018-Apr-14 07:01N 46°10' W 123°55'0 0.0
2018-Apr-14 06:30N 46°10' W 123°55'0 0.0
2018-Apr-14 06:01N 46°10' W 123°55'0 0.0
2018-Apr-14 05:30N 46°10' W 123°55'0 0.0
2018-Apr-14 04:56N 46°10' W 123°55'0 0.0
2018-Apr-14 04:24N 46°10' W 123°55'0 0.0
2018-Apr-14 04:01N 46°10' W 123°55'0 0.0
2018-Apr-14 03:31N 46°10' W 123°55'0 0.0
2018-Apr-14 02:56N 46°10' W 123°55'0 0.0
2018-Apr-14 02:30N 46°10' W 123°55'0 0.0
2018-Apr-14 02:00N 46°10' W 123°55'0 0.0
2018-Apr-14 01:30N 46°10' W 123°55'0 0.0
2018-Apr-14 00:57N 46°10' W 123°55'0 0.0
2018-Apr-14 00:30N 46°10' W 123°55'0 0.0
2018-Apr-14 00:01N 46°10' W 123°55'0 0.0
2018-Apr-13 23:28N 46°10' W 123°55'0 0.0
2018-Apr-13 22:57N 46°10' W 123°55'0 0.0
2018-Apr-13 22:30N 46°10' W 123°55'0 0.0
2018-Apr-13 22:01N 46°10' W 123°55'0 0.0
2018-Apr-13 21:31N 46°10' W 123°55'0 0.0
2018-Apr-13 21:01N 46°10' W 123°55'0 0.0
2018-Apr-13 20:30N 46°10' W 123°55'0 0.0
2018-Apr-13 20:00N 46°10' W 123°55'0 0.0
2018-Apr-13 19:31N 46°10' W 123°55'0 0.0
2018-Apr-13 19:01N 46°10' W 123°55'0 0.1
2018-Apr-13 18:17N 46°10' W 123°55'0 0.0
2018-Apr-13 18:00N 46°10' W 123°55'0 0.0
2018-Apr-13 17:30N 46°10' W 123°55'0 0.0
2018-Apr-13 17:01N 46°10' W 123°55'0 0.0
2018-Apr-13 16:31N 46°10' W 123°55'0 0.0
2018-Apr-13 16:01N 46°10' W 123°55'0 0.1
2018-Apr-13 15:30N 46°10' W 123°55'0 0.0
2018-Apr-13 15:01N 46°10' W 123°55'0 0.0
2018-Apr-13 14:30N 46°10' W 123°55'0 0.0
2018-Apr-13 14:01N 46°10' W 123°55'0 0.0
2018-Apr-13 13:30N 46°10' W 123°55'0 0.0
2018-Apr-13 13:01N 46°10' W 123°55'0 0.0
2018-Apr-13 12:31N 46°10' W 123°55'0 0.0
2018-Apr-13 12:00N 46°10' W 123°55'0 0.0
2018-Apr-13 11:30N 46°10' W 123°55'0 0.0
2018-Apr-13 11:01N 46°10' W 123°55'0 0.0
2018-Apr-13 10:31N 46°10' W 123°55'0 0.0
2018-Apr-13 10:00N 46°10' W 123°55'0 0.0
2018-Apr-13 09:29N 46°10' W 123°55'0 0.0
2018-Apr-13 09:01N 46°10' W 123°55'0 0.0
2018-Apr-13 08:31N 46°10' W 123°55'0 0.0
2018-Apr-13 08:00N 46°10' W 123°55'0 0.0
2018-Apr-13 07:31N 46°10' W 123°55'0 0.0
2018-Apr-13 07:01N 46°10' W 123°55'0 0.0
2018-Apr-13 06:30N 46°10' W 123°55'0 0.0
2018-Apr-13 06:00N 46°10' W 123°55'0 0.0
2018-Apr-13 05:30N 46°10' W 123°55'0 0.0
2018-Apr-13 05:00N 46°10' W 123°55'0 0.0
2018-Apr-13 04:30N 46°10' W 123°55'0 0.0
2018-Apr-13 03:49N 46°10' W 123°55'0 0.0
2018-Apr-13 03:21N 46°10' W 123°55'0 0.0
2018-Apr-13 03:00N 46°10' W 123°55'0 0.0
2018-Apr-13 02:31N 46°10' W 123°55'0 0.0
2018-Apr-13 01:59N 46°10' W 123°55'0 0.0
2018-Apr-13 01:26N 46°10' W 123°55'0 0.0
2018-Apr-13 01:00N 46°10' W 123°55'0 0.0
2018-Apr-13 00:30N 46°10' W 123°55'0 0.0
2018-Apr-12 23:47N 46°10' W 123°55'0 0.0
2018-Apr-12 23:31N 46°10' W 123°55'0 0.0
2018-Apr-12 23:00N 46°10' W 123°55'0 0.0
2018-Apr-12 22:30N 46°10' W 123°55'0 0.0
2018-Apr-12 22:00N 46°10' W 123°55'0 0.0
2018-Apr-12 21:31N 46°10' W 123°55'0 0.0
2018-Apr-12 21:01N 46°10' W 123°55'0 0.0
2018-Apr-12 20:31N 46°10' W 123°55'0 0.0
2018-Apr-12 20:01N 46°10' W 123°55'0 0.0
2018-Apr-12 19:30N 46°10' W 123°55'0 0.0
2018-Apr-12 19:00N 46°10' W 123°55'0 0.0
2018-Apr-12 18:30N 46°10' W 123°55'0 0.0
2018-Apr-12 18:01N 46°10' W 123°55'0 0.0
2018-Apr-12 17:30N 46°10' W 123°55'0 0.0
2018-Apr-12 17:01N 46°10' W 123°55'0 0.0
2018-Apr-12 16:30N 46°10' W 123°55'0 0.0
2018-Apr-12 16:01N 46°10' W 123°55'0 0.0
2018-Apr-12 15:31N 46°10' W 123°55'0 0.0
2018-Apr-12 15:00N 46°10' W 123°55'0 0.0
2018-Apr-12 14:31N 46°10' W 123°55'0 0.0
2018-Apr-12 14:00N 46°10' W 123°55'0 0.0
2018-Apr-12 13:31N 46°10' W 123°55'0 0.0
2018-Apr-12 13:00N 46°10' W 123°55'0 0.0
2018-Apr-12 12:31N 46°10' W 123°55'0 0.0
2018-Apr-12 12:00N 46°10' W 123°55'0 0.0
2018-Apr-12 11:31N 46°10' W 123°55'0 0.0
2018-Apr-12 11:01N 46°10' W 123°55'0 0.0
2018-Apr-12 10:31N 46°10' W 123°55'0 0.0
2018-Apr-12 10:00N 46°10' W 123°55'0 0.0
2018-Apr-12 09:31N 46°10' W 123°55'0 0.0
2018-Apr-12 09:01N 46°10' W 123°55'0 0.0
2018-Apr-12 08:30N 46°10' W 123°55'0 0.0
2018-Apr-12 08:01N 46°10' W 123°55'0 0.0
2018-Apr-12 07:31N 46°10' W 123°55'0 0.0
2018-Apr-12 07:01N 46°10' W 123°55'0 0.0
2018-Apr-12 06:30N 46°10' W 123°55'0 0.0
2018-Apr-12 06:01N 46°10' W 123°55'0 0.0
2018-Apr-12 05:31N 46°10' W 123°55'0 0.0
2018-Apr-12 05:00N 46°10' W 123°55'0 0.0
2018-Apr-12 04:30N 46°10' W 123°55'0 0.0
2018-Apr-12 04:01N 46°10' W 123°55'0 0.0
2018-Apr-12 03:31N 46°10' W 123°55'0 0.0
2018-Apr-12 03:00N 46°10' W 123°55'0 0.0
2018-Apr-12 02:30N 46°10' W 123°55'0 0.0
2018-Apr-12 02:00N 46°10' W 123°55'0 0.0
2018-Apr-12 01:30N 46°10' W 123°55'0 0.0
2018-Apr-12 00:52N 46°10' W 123°55'0 0.0
2018-Apr-12 00:30N 46°10' W 123°55'0 0.0
2018-Apr-12 00:00N 46°10' W 123°55'0 0.0
2018-Apr-11 23:30N 46°10' W 123°55'0 0.0
2018-Apr-11 23:00N 46°10' W 123°55'0 0.0
2018-Apr-11 22:30N 46°10' W 123°55'0 0.0
2018-Apr-11 22:00N 46°10' W 123°55'0 0.0
2018-Apr-11 21:30N 46°10' W 123°55'0 0.0
2018-Apr-11 21:00N 46°10' W 123°55'0 0.0
2018-Apr-11 20:30N 46°10' W 123°55'0 0.0
2018-Apr-11 20:00N 46°10' W 123°55'0 0.0
2018-Apr-11 19:30N 46°10' W 123°55'0 0.0
2018-Apr-11 19:00N 46°10' W 123°55'0 0.0
2018-Apr-11 18:30N 46°10' W 123°55'0 0.0
2018-Apr-11 18:00N 46°10' W 123°55'0 0.0
2018-Apr-11 17:30N 46°10' W 123°55'0 0.0
2018-Apr-11 17:00N 46°10' W 123°55'0 0.0
2018-Apr-11 16:30N 46°10' W 123°55'0 0.0
2018-Apr-11 16:00N 46°10' W 123°55'0 0.0
2018-Apr-11 15:31N 46°10' W 123°55'0 0.0
2018-Apr-11 15:00N 46°10' W 123°55'0 0.0
2018-Apr-11 14:30N 46°10' W 123°55'0 0.0
2018-Apr-11 14:00N 46°10' W 123°55'0 0.0
2018-Apr-11 13:30N 46°10' W 123°55'0 0.0
2018-Apr-11 13:00N 46°10' W 123°55'0 0.0
2018-Apr-11 12:31N 46°10' W 123°55'0 0.0
2018-Apr-11 12:00N 46°10' W 123°55'0 0.0
2018-Apr-11 11:30N 46°10' W 123°55'0 0.0
2018-Apr-11 11:00N 46°10' W 123°55'0 0.0
2018-Apr-11 10:30N 46°10' W 123°55'0 0.0
2018-Apr-11 10:00N 46°10' W 123°55'0 0.0
2018-Apr-11 09:30N 46°10' W 123°55'0 0.0
2018-Apr-11 09:00N 46°10' W 123°55'0 0.0
2018-Apr-11 08:30N 46°10' W 123°55'0 0.0
2018-Apr-11 08:01N 46°10' W 123°55'0 0.0
2018-Apr-11 07:30N 46°10' W 123°55'0 0.0
2018-Apr-11 07:00N 46°10' W 123°55'0 0.0
2018-Apr-11 06:30N 46°10' W 123°55'0 0.0
2018-Apr-11 06:00N 46°10' W 123°55'0 0.0
2018-Apr-11 05:30N 46°10' W 123°55'0 0.0
2018-Apr-11 05:00N 46°10' W 123°55'0 0.0
2018-Apr-11 04:30N 46°10' W 123°55'0 0.0
2018-Apr-11 04:00N 46°10' W 123°55'0 0.0
2018-Apr-11 03:30N 46°10' W 123°55'0 0.0
2018-Apr-11 03:00N 46°10' W 123°55'0 0.0
2018-Apr-11 02:30N 46°10' W 123°55'0 0.0
2018-Apr-11 02:00N 46°10' W 123°55'0 0.0
2018-Apr-11 01:26N 46°10' W 123°55'0 0.0
2018-Apr-11 00:47N 46°10' W 123°55'0 0.0
2018-Apr-11 00:30N 46°10' W 123°55'0 0.0
2018-Apr-11 00:00N 46°10' W 123°55'0 0.0
2018-Apr-10 23:31N 46°10' W 123°55'0 0.0
2018-Apr-10 23:01N 46°10' W 123°55'0 0.0
2018-Apr-10 22:30N 46°10' W 123°55'0 0.0
2018-Apr-10 22:00N 46°10' W 123°55'0 0.0
2018-Apr-10 21:30N 46°10' W 123°55'0 0.0
2018-Apr-10 21:00N 46°10' W 123°55'0 0.0
2018-Apr-10 20:30N 46°10' W 123°55'0 0.0
2018-Apr-10 20:00N 46°10' W 123°55'0 0.0
2018-Apr-10 19:31N 46°10' W 123°55'0 0.0
2018-Apr-10 18:56N 46°10' W 123°55'0 0.0
2018-Apr-10 18:30N 46°10' W 123°55'0 0.0
2018-Apr-10 18:01N 46°10' W 123°55'0 0.0
2018-Apr-10 17:30N 46°10' W 123°55'0 0.0
2018-Apr-10 17:00N 46°10' W 123°55'0 0.0
2018-Apr-10 16:30N 46°10' W 123°55'0 0.0
2018-Apr-10 16:00N 46°10' W 123°55'0 0.0
2018-Apr-10 15:30N 46°10' W 123°55'0 0.0
2018-Apr-10 15:00N 46°10' W 123°55'0 0.0
2018-Apr-10 14:30N 46°10' W 123°55'0 0.0
2018-Apr-10 14:00N 46°10' W 123°55'0 0.0
2018-Apr-10 13:30N 46°10' W 123°55'0 0.0
2018-Apr-10 13:00N 46°10' W 123°55'0 0.0
2018-Apr-10 12:30N 46°10' W 123°55'0 0.0
2018-Apr-10 11:57N 46°10' W 123°55'0 0.0
2018-Apr-10 11:30N 46°10' W 123°55'0 0.0
2018-Apr-10 11:00N 46°10' W 123°55'0 0.0
2018-Apr-10 10:30N 46°10' W 123°55'0 0.0
2018-Apr-10 09:55N 46°10' W 123°55'0 0.0
2018-Apr-10 09:30N 46°10' W 123°55'0 0.0
2018-Apr-10 09:00N 46°10' W 123°55'0 0.0
2018-Apr-10 08:30N 46°10' W 123°55'0 0.0
2018-Apr-10 08:00N 46°10' W 123°55'0 0.0
2018-Apr-10 07:30N 46°10' W 123°55'0 0.0
2018-Apr-10 07:00N 46°10' W 123°55'0 0.0
2018-Apr-10 06:30N 46°10' W 123°55'0 0.0
2018-Apr-10 06:00N 46°10' W 123°55'0 0.0
2018-Apr-10 05:30N 46°10' W 123°55'0 0.0
2018-Apr-10 04:57N 46°10' W 123°55'0 0.0
2018-Apr-10 04:31N 46°10' W 123°55'0 0.0
2018-Apr-10 03:54N 46°10' W 123°55'0 0.0
2018-Apr-10 03:30N 46°10' W 123°55'  
Track history (hours):
 
Tides and Currents Weather Stations Pressure Air Temp Water Temp Dewpoint Dewpoint Depression Visibility Wind Speed Wind Dir Waves Ship Positions

Endeavor

Owner: Daniel J. Fisheries, Warrenton, OR. More information available from US FCC via Universal Licensing System and Coast Guard Vessel Documentation Center.

Last reported at 2018-Apr-20 03:07 UTC. Time now 2018-Apr-20 12:48 UTC.
Position N 47°08' W 124°51'.

Type: Fishing. MMSI: 367327250.

Date/timePositionNaut miles runAvg speedWind from/ knotsBaromVisibWave heightAir tempDewpointWater temp
2018-Apr-20 03:07N 47°08' W 124°51'5 0.3
2018-Apr-19 11:42N 47°02' W 124°53'0 0.0
2018-Apr-19 11:21N 47°02' W 124°53'0 0.3
2018-Apr-19 10:48N 47°02' W 124°53'0 0.4
2018-Apr-19 10:30N 47°02' W 124°53'0 0.4
2018-Apr-19 10:00N 47°02' W 124°52'0 0.4
2018-Apr-19 09:27N 47°03' W 124°52'0 0.4
2018-Apr-19 09:00N 47°03' W 124°52'1 0.5
2018-Apr-19 07:57N 47°03' W 124°51'0 0.6
2018-Apr-19 07:25N 47°03' W 124°51'0 0.6
2018-Apr-19 06:59N 47°04' W 124°51'0 0.5
2018-Apr-19 06:15N 47°04' W 124°51'3 0.7
2018-Apr-19 02:21N 47°02' W 124°49'3 1.4
2018-Apr-19 00:24N 46°59' W 124°47'1 1.4
2018-Apr-18 23:59N 46°59' W 124°48'1 2.0
2018-Apr-18 23:30N 46°60' W 124°49'0 0.4
2018-Apr-18 23:00N 46°60' W 124°49'1 1.4
2018-Apr-18 22:13N 46°59' W 124°48'1 1.5
2018-Apr-18 21:46N 46°59' W 124°47'0 1.7
2018-Apr-18 21:30N 46°58' W 124°47'1 1.8
2018-Apr-18 21:00N 46°58' W 124°46'1 1.1
2018-Apr-18 20:30N 46°58' W 124°45'4 2.5
2018-Apr-18 19:02N 46°54' W 124°43'1 5.8
2018-Apr-18 18:55N 46°53' W 124°43'3 5.9
2018-Apr-18 18:25N 46°51' W 124°42'2 2.1
2018-Apr-18 17:39N 46°49' W 124°40'0 1.8
2018-Apr-18 17:29N 46°49' W 124°40'1 2.1
2018-Apr-18 17:00N 46°48' W 124°40'3 5.1
2018-Apr-18 16:31N 46°45' W 124°40'1 1.9
2018-Apr-18 16:00N 46°45' W 124°40'1 1.5
2018-Apr-18 15:30N 46°44' W 124°40'1 1.7
2018-Apr-18 15:00N 46°43' W 124°40'1 2.0
2018-Apr-18 14:31N 46°43' W 124°39'1 1.2
2018-Apr-18 14:00N 46°44' W 124°38'1 2.0
2018-Apr-18 13:27N 46°44' W 124°39'0 0.8
2018-Apr-18 13:00N 46°44' W 124°39'1 2.4
2018-Apr-18 12:30N 46°44' W 124°37'1 1.1
2018-Apr-18 12:01N 46°43' W 124°37'1 1.2
2018-Apr-18 11:26N 46°43' W 124°37'4 8.3
2018-Apr-18 10:57N 46°39' W 124°33'4 8.3
2018-Apr-18 10:30N 46°36' W 124°31'4 8.5
2018-Apr-18 10:01N 46°33' W 124°27'4 8.8
2018-Apr-18 09:30N 46°29' W 124°23'5 8.8
2018-Apr-18 08:56N 46°25' W 124°19'4 8.6
2018-Apr-18 08:30N 46°22' W 124°16'4 8.6
2018-Apr-18 08:00N 46°19' W 124°12'4 8.1
2018-Apr-18 07:31N 46°16' W 124°08'4 6.8
2018-Apr-18 06:52N 46°15' W 124°02'3 7.2
2018-Apr-18 06:30N 46°14' W 123°59'4 7.6
2018-Apr-18 06:00N 46°11' W 123°55'1 2.5
2018-Apr-18 05:31N 46°10' W 123°55'0 0.0
2018-Apr-18 05:00N 46°10' W 123°55'0 0.0
2018-Apr-18 04:30N 46°10' W 123°55'0 0.0
2018-Apr-18 04:00N 46°10' W 123°55'0 0.0
2018-Apr-18 03:31N 46°10' W 123°55'0 0.0
2018-Apr-18 03:00N 46°10' W 123°55'0 0.0
2018-Apr-18 02:30N 46°10' W 123°55'0 0.0
2018-Apr-18 02:00N 46°10' W 123°55'0 0.0
2018-Apr-18 01:30N 46°10' W 123°55'0 0.0
2018-Apr-18 01:01N 46°10' W 123°55'0 0.0
2018-Apr-18 00:30N 46°10' W 123°55'0 0.0
2018-Apr-18 00:01N 46°10' W 123°55'0 0.0
2018-Apr-17 23:30N 46°10' W 123°55'0 0.0
2018-Apr-17 23:01N 46°10' W 123°55'0 0.0
2018-Apr-17 22:31N 46°10' W 123°55'0 0.0
2018-Apr-17 22:00N 46°10' W 123°55'0 0.0
2018-Apr-17 21:31N 46°10' W 123°55'0 0.0
2018-Apr-17 21:00N 46°10' W 123°55'0 0.0
2018-Apr-17 20:31N 46°10' W 123°55'0 0.0
2018-Apr-17 20:01N 46°10' W 123°55'0 0.0
2018-Apr-17 19:10N 46°10' W 123°55'0 0.0
2018-Apr-17 19:00N 46°10' W 123°55'0 0.0
2018-Apr-17 18:28N 46°10' W 123°55'0 0.0
2018-Apr-17 18:00N 46°10' W 123°55'0 0.0
2018-Apr-17 17:29N 46°10' W 123°55'0 0.0
2018-Apr-17 17:00N 46°10' W 123°55'0 0.0
2018-Apr-17 16:15N 46°10' W 123°55'0 0.0
2018-Apr-17 16:00N 46°10' W 123°55'0 0.0
2018-Apr-17 15:30N 46°10' W 123°55'0 0.0
2018-Apr-17 15:00N 46°10' W 123°55'0 0.0
2018-Apr-17 14:30N 46°10' W 123°55'0 0.0
2018-Apr-17 14:00N 46°10' W 123°55'0 0.0
2018-Apr-17 13:30N 46°10' W 123°55'0 0.0
2018-Apr-17 12:53N 46°10' W 123°55'0 0.0
2018-Apr-17 12:30N 46°10' W 123°55'0 0.0
2018-Apr-17 12:00N 46°10' W 123°55'0 0.0
2018-Apr-17 11:31N 46°10' W 123°55'0 0.0
2018-Apr-17 10:52N 46°10' W 123°55'0 0.0
2018-Apr-17 10:30N 46°10' W 123°55'0 0.0
2018-Apr-17 10:00N 46°10' W 123°55'0 0.0
2018-Apr-17 09:30N 46°10' W 123°55'0 0.0
2018-Apr-17 08:51N 46°10' W 123°55'0 0.0
2018-Apr-17 08:31N 46°10' W 123°55'0 0.0
2018-Apr-17 07:59N 46°10' W 123°55'0 0.0
2018-Apr-17 07:30N 46°10' W 123°55'0 0.0
2018-Apr-17 06:50N 46°10' W 123°55'0 0.0
2018-Apr-17 06:30N 46°10' W 123°55'0 0.0
2018-Apr-17 05:21N 46°10' W 123°55'0 0.0
2018-Apr-17 05:00N 46°10' W 123°55'0 0.0
2018-Apr-17 04:30N 46°10' W 123°55'0 0.0
2018-Apr-17 04:00N 46°10' W 123°55'0 0.0
2018-Apr-17 03:31N 46°10' W 123°55'0 0.0
2018-Apr-17 03:01N 46°10' W 123°55'0 0.0
2018-Apr-17 02:30N 46°10' W 123°55'0 0.0
2018-Apr-17 02:00N 46°10' W 123°55'0 0.0
2018-Apr-17 01:30N 46°10' W 123°55'0 0.0
2018-Apr-17 01:00N 46°10' W 123°55'0 0.0
2018-Apr-17 00:23N 46°10' W 123°55'0 0.0
2018-Apr-17 00:00N 46°10' W 123°55'0 0.0
2018-Apr-16 23:24N 46°10' W 123°55'0 0.0
2018-Apr-16 23:00N 46°10' W 123°55'0 0.0
2018-Apr-16 22:30N 46°10' W 123°55'0 0.0
2018-Apr-16 22:01N 46°10' W 123°55'0 0.0
2018-Apr-16 21:31N 46°10' W 123°55'0 0.0
2018-Apr-16 21:00N 46°10' W 123°55'0 0.0
2018-Apr-16 20:21N 46°10' W 123°55'0 0.0
2018-Apr-16 20:01N 46°10' W 123°55'0 0.0
2018-Apr-16 19:28N 46°10' W 123°55'0 0.0
2018-Apr-16 19:00N 46°10' W 123°55'0 0.0
2018-Apr-16 18:31N 46°10' W 123°55'0 0.0
2018-Apr-16 18:01N 46°10' W 123°55'0 0.0
2018-Apr-16 17:30N 46°10' W 123°55'0 0.0
2018-Apr-16 17:01N 46°10' W 123°55'0 0.0
2018-Apr-16 16:22N 46°10' W 123°55'0 0.0
2018-Apr-16 15:53N 46°10' W 123°55'0 0.0
2018-Apr-16 15:30N 46°10' W 123°55'0 0.0
2018-Apr-16 15:00N 46°10' W 123°55'0 0.0
2018-Apr-16 14:31N 46°10' W 123°55'0 0.0
2018-Apr-16 14:01N 46°10' W 123°55'0 0.0
2018-Apr-16 13:31N 46°10' W 123°55'0 0.0
2018-Apr-16 13:00N 46°10' W 123°55'0 0.0
2018-Apr-16 12:31N 46°10' W 123°55'0 0.0
2018-Apr-16 12:01N 46°10' W 123°55'0 0.0
2018-Apr-16 11:30N 46°10' W 123°55'0 0.0
2018-Apr-16 11:00N 46°10' W 123°55'0 0.0
2018-Apr-16 10:31N 46°10' W 123°55'0 0.0
2018-Apr-16 10:00N 46°10' W 123°55'0 0.0
2018-Apr-16 09:31N 46°10' W 123°55'0 0.0
2018-Apr-16 09:00N 46°10' W 123°55'0 0.0
2018-Apr-16 08:31N 46°10' W 123°55'0 0.0
2018-Apr-16 08:00N 46°10' W 123°55'0 0.0
2018-Apr-16 07:31N 46°10' W 123°55'0 0.0
2018-Apr-16 07:00N 46°10' W 123°55'0 0.0
2018-Apr-16 06:31N 46°10' W 123°55'0 0.0
2018-Apr-16 06:01N 46°10' W 123°55'0 0.0
2018-Apr-16 05:31N 46°10' W 123°55'0 0.0
2018-Apr-16 05:01N 46°10' W 123°55'0 0.0
2018-Apr-16 04:31N 46°10' W 123°55'0 0.0
2018-Apr-16 04:00N 46°10' W 123°55'0 0.0
2018-Apr-16 03:30N 46°10' W 123°55'0 0.0
2018-Apr-16 03:00N 46°10' W 123°55'0 0.0
2018-Apr-16 02:31N 46°10' W 123°55'0 0.0
2018-Apr-16 02:00N 46°10' W 123°55'0 0.0
2018-Apr-16 01:31N 46°10' W 123°55'0 0.0
2018-Apr-16 01:00N 46°10' W 123°55'0 0.0
2018-Apr-16 00:30N 46°10' W 123°55'0 0.0
2018-Apr-16 00:00N 46°10' W 123°55'0 0.0
2018-Apr-15 23:30N 46°10' W 123°55'0 0.0
2018-Apr-15 23:01N 46°10' W 123°55'0 0.0
2018-Apr-15 22:30N 46°10' W 123°55'0 0.0
2018-Apr-15 22:00N 46°10' W 123°55'0 0.0
2018-Apr-15 21:31N 46°10' W 123°55'0 0.0
2018-Apr-15 21:00N 46°10' W 123°55'0 0.0
2018-Apr-15 20:31N 46°10' W 123°55'0 0.0
2018-Apr-15 20:01N 46°10' W 123°55'0 0.0
2018-Apr-15 19:31N 46°10' W 123°55'0 0.0
2018-Apr-15 19:01N 46°10' W 123°55'0 0.0
2018-Apr-15 18:31N 46°10' W 123°55'0 0.0
2018-Apr-15 18:01N 46°10' W 123°55'0 0.0
2018-Apr-15 17:30N 46°10' W 123°55'0 0.0
2018-Apr-15 17:01N 46°10' W 123°55'0 0.0
2018-Apr-15 16:30N 46°10' W 123°55'0 0.0
2018-Apr-15 16:01N 46°10' W 123°55'0 0.0
2018-Apr-15 15:31N 46°10' W 123°55'0 0.0
2018-Apr-15 15:00N 46°10' W 123°55'0 0.0
2018-Apr-15 14:31N 46°10' W 123°55'0 0.0
2018-Apr-15 14:01N 46°10' W 123°55'0 0.0
2018-Apr-15 13:31N 46°10' W 123°55'0 0.0
2018-Apr-15 13:00N 46°10' W 123°55'0 0.0
2018-Apr-15 12:30N 46°10' W 123°55'0 0.0
2018-Apr-15 12:01N 46°10' W 123°55'0 0.0
2018-Apr-15 11:30N 46°10' W 123°55'0 0.0
2018-Apr-15 11:01N 46°10' W 123°55'0 0.0
2018-Apr-15 10:31N 46°10' W 123°55'0 0.0
2018-Apr-15 09:12N 46°10' W 123°55'0 0.0
2018-Apr-15 09:01N 46°10' W 123°55'0 0.0
2018-Apr-15 08:31N 46°10' W 123°55'0 0.0
2018-Apr-15 08:01N 46°10' W 123°55'0 0.0
2018-Apr-15 07:30N 46°10' W 123°55'0 0.0
2018-Apr-15 07:01N 46°10' W 123°55'0 0.0
2018-Apr-15 06:31N 46°10' W 123°55'0 0.0
2018-Apr-15 06:01N 46°10' W 123°55'0 0.0
2018-Apr-15 05:31N 46°10' W 123°55'0 0.0
2018-Apr-15 05:00N 46°10' W 123°55'0 0.0
2018-Apr-15 04:31N 46°10' W 123°55'0 0.0
2018-Apr-15 04:00N 46°10' W 123°55'0 0.0
2018-Apr-15 03:31N 46°10' W 123°55'0 0.0
2018-Apr-15 03:01N 46°10' W 123°55'0 0.0
2018-Apr-15 02:31N 46°10' W 123°55'0 0.0
2018-Apr-15 02:01N 46°10' W 123°55'0 0.0
2018-Apr-15 01:31N 46°10' W 123°55'0 0.0
2018-Apr-15 01:00N 46°10' W 123°55'0 0.0
2018-Apr-15 00:30N 46°10' W 123°55'0 0.0
2018-Apr-15 00:01N 46°10' W 123°55'0 0.0
2018-Apr-14 23:31N 46°10' W 123°55'0 0.0
2018-Apr-14 23:01N 46°10' W 123°55'0 0.0
2018-Apr-14 22:31N 46°10' W 123°55'0 0.0
2018-Apr-14 22:00N 46°10' W 123°55'0 0.0
2018-Apr-14 21:30N 46°10' W 123°55'0 0.0
2018-Apr-14 21:00N 46°10' W 123°55'0 0.0
2018-Apr-14 20:30N 46°10' W 123°55'0 0.0
2018-Apr-14 20:01N 46°10' W 123°55'0 0.0
2018-Apr-14 19:31N 46°10' W 123°55'0 0.0
2018-Apr-14 19:01N 46°10' W 123°55'0 0.0
2018-Apr-14 18:31N 46°10' W 123°55'0 0.0
2018-Apr-14 18:00N 46°10' W 123°55'0 0.0
2018-Apr-14 17:30N 46°10' W 123°55'0 0.0
2018-Apr-14 17:00N 46°10' W 123°55'0 0.0
2018-Apr-14 16:31N 46°10' W 123°55'0 0.0
2018-Apr-14 16:00N 46°10' W 123°55'0 0.0
2018-Apr-14 15:30N 46°10' W 123°55'0 0.0
2018-Apr-14 15:01N 46°10' W 123°55'0 0.0
2018-Apr-14 14:31N 46°10' W 123°55'0 0.0
2018-Apr-14 14:01N 46°10' W 123°55'0 0.0
2018-Apr-14 13:31N 46°10' W 123°55'0 0.0
2018-Apr-14 12:59N 46°10' W 123°55'0 0.0
2018-Apr-14 12:30N 46°10' W 123°55'0 0.0
2018-Apr-14 12:01N 46°10' W 123°55'0 0.0
2018-Apr-14 11:31N 46°10' W 123°55'0 0.0
2018-Apr-14 11:01N 46°10' W 123°55'0 0.0
2018-Apr-14 10:05N 46°10' W 123°55'0 0.1
2018-Apr-14 10:00N 46°10' W 123°55'0 0.0
2018-Apr-14 09:30N 46°10' W 123°55'0 0.0
2018-Apr-14 08:55N 46°10' W 123°55'0 0.0
2018-Apr-14 08:31N 46°10' W 123°55'0 0.0
2018-Apr-14 08:00N 46°10' W 123°55'0 0.0
2018-Apr-14 07:30N 46°10' W 123°55'0 0.0
2018-Apr-14 07:01N 46°10' W 123°55'0 0.0
2018-Apr-14 06:30N 46°10' W 123°55'0 0.0
2018-Apr-14 06:01N 46°10' W 123°55'0 0.0
2018-Apr-14 05:30N 46°10' W 123°55'0 0.0
2018-Apr-14 04:56N 46°10' W 123°55'0 0.0
2018-Apr-14 04:24N 46°10' W 123°55'0 0.0
2018-Apr-14 04:01N 46°10' W 123°55'0 0.0
2018-Apr-14 03:31N 46°10' W 123°55'0 0.0
2018-Apr-14 02:56N 46°10' W 123°55'0 0.0
2018-Apr-14 02:30N 46°10' W 123°55'0 0.0
2018-Apr-14 02:00N 46°10' W 123°55'0 0.0
2018-Apr-14 01:30N 46°10' W 123°55'0 0.0
2018-Apr-14 00:57N 46°10' W 123°55'0 0.0
2018-Apr-14 00:30N 46°10' W 123°55'0 0.0
2018-Apr-14 00:01N 46°10' W 123°55'0 0.0
2018-Apr-13 23:28N 46°10' W 123°55'0 0.0
2018-Apr-13 22:57N 46°10' W 123°55'0 0.0
2018-Apr-13 22:30N 46°10' W 123°55'0 0.0
2018-Apr-13 22:01N 46°10' W 123°55'0 0.0
2018-Apr-13 21:31N 46°10' W 123°55'0 0.0
2018-Apr-13 21:01N 46°10' W 123°55'0 0.0
2018-Apr-13 20:30N 46°10' W 123°55'0 0.0
2018-Apr-13 20:00N 46°10' W 123°55'0 0.0
2018-Apr-13 19:31N 46°10' W 123°55'0 0.0
2018-Apr-13 19:01N 46°10' W 123°55'0 0.1
2018-Apr-13 18:17N 46°10' W 123°55'0 0.0
2018-Apr-13 18:00N 46°10' W 123°55'0 0.0
2018-Apr-13 17:30N 46°10' W 123°55'0 0.0
2018-Apr-13 17:01N 46°10' W 123°55'0 0.0
2018-Apr-13 16:31N 46°10' W 123°55'0 0.0
2018-Apr-13 16:01N 46°10' W 123°55'0 0.1
2018-Apr-13 15:30N 46°10' W 123°55'0 0.0
2018-Apr-13 15:01N 46°10' W 123°55'0 0.0
2018-Apr-13 14:30N 46°10' W 123°55'0 0.0
2018-Apr-13 14:01N 46°10' W 123°55'0 0.0
2018-Apr-13 13:30N 46°10' W 123°55'0 0.0
2018-Apr-13 13:01N 46°10' W 123°55'0 0.0
2018-Apr-13 12:31N 46°10' W 123°55'0 0.0
2018-Apr-13 12:00N 46°10' W 123°55'0 0.0
2018-Apr-13 11:30N 46°10' W 123°55'0 0.0
2018-Apr-13 11:01N 46°10' W 123°55'0 0.0
2018-Apr-13 10:31N 46°10' W 123°55'0 0.0
2018-Apr-13 10:00N 46°10' W 123°55'0 0.0
2018-Apr-13 09:29N 46°10' W 123°55'0 0.0
2018-Apr-13 09:01N 46°10' W 123°55'0 0.0
2018-Apr-13 08:31N 46°10' W 123°55'0 0.0
2018-Apr-13 08:00N 46°10' W 123°55'0 0.0
2018-Apr-13 07:31N 46°10' W 123°55'0 0.0
2018-Apr-13 07:01N 46°10' W 123°55'0 0.0
2018-Apr-13 06:30N 46°10' W 123°55'0 0.0
2018-Apr-13 06:00N 46°10' W 123°55'0 0.0
2018-Apr-13 05:30N 46°10' W 123°55'0 0.0
2018-Apr-13 05:00N 46°10' W 123°55'0 0.0
2018-Apr-13 04:30N 46°10' W 123°55'0 0.0
2018-Apr-13 03:49N 46°10' W 123°55'0 0.0
2018-Apr-13 03:21N 46°10' W 123°55'0 0.0
2018-Apr-13 03:00N 46°10' W 123°55'0 0.0
2018-Apr-13 02:31N 46°10' W 123°55'0 0.0
2018-Apr-13 01:59N 46°10' W 123°55'0 0.0
2018-Apr-13 01:26N 46°10' W 123°55'0 0.0
2018-Apr-13 01:00N 46°10' W 123°55'0 0.0
2018-Apr-13 00:30N 46°10' W 123°55'0 0.0
2018-Apr-12 23:47N 46°10' W 123°55'0 0.0
2018-Apr-12 23:31N 46°10' W 123°55'0 0.0
2018-Apr-12 23:00N 46°10' W 123°55'0 0.0
2018-Apr-12 22:30N 46°10' W 123°55'0 0.0
2018-Apr-12 22:00N 46°10' W 123°55'0 0.0
2018-Apr-12 21:31N 46°10' W 123°55'0 0.0
2018-Apr-12 21:01N 46°10' W 123°55'0 0.0
2018-Apr-12 20:31N 46°10' W 123°55'0 0.0
2018-Apr-12 20:01N 46°10' W 123°55'0 0.0
2018-Apr-12 19:30N 46°10' W 123°55'0 0.0
2018-Apr-12 19:00N 46°10' W 123°55'0 0.0
2018-Apr-12 18:30N 46°10' W 123°55'0 0.0
2018-Apr-12 18:01N 46°10' W 123°55'0 0.0
2018-Apr-12 17:30N 46°10' W 123°55'0 0.0
2018-Apr-12 17:01N 46°10' W 123°55'0 0.0
2018-Apr-12 16:30N 46°10' W 123°55'0 0.0
2018-Apr-12 16:01N 46°10' W 123°55'0 0.0
2018-Apr-12 15:31N 46°10' W 123°55'0 0.0
2018-Apr-12 15:00N 46°10' W 123°55'0 0.0
2018-Apr-12 14:31N 46°10' W 123°55'0 0.0
2018-Apr-12 14:00N 46°10' W 123°55'0 0.0
2018-Apr-12 13:31N 46°10' W 123°55'0 0.0
2018-Apr-12 13:00N 46°10' W 123°55'0 0.0
2018-Apr-12 12:31N 46°10' W 123°55'0 0.0
2018-Apr-12 12:00N 46°10' W 123°55'0 0.0
2018-Apr-12 11:31N 46°10' W 123°55'0 0.0
2018-Apr-12 11:01N 46°10' W 123°55'0 0.0
2018-Apr-12 10:31N 46°10' W 123°55'0 0.0
2018-Apr-12 10:00N 46°10' W 123°55'0 0.0
2018-Apr-12 09:31N 46°10' W 123°55'0 0.0
2018-Apr-12 09:01N 46°10' W 123°55'0 0.0
2018-Apr-12 08:30N 46°10' W 123°55'0 0.0
2018-Apr-12 08:01N 46°10' W 123°55'0 0.0
2018-Apr-12 07:31N 46°10' W 123°55'0 0.0
2018-Apr-12 07:01N 46°10' W 123°55'0 0.0
2018-Apr-12 06:30N 46°10' W 123°55'0 0.0
2018-Apr-12 06:01N 46°10' W 123°55'0 0.0
2018-Apr-12 05:31N 46°10' W 123°55'0 0.0
2018-Apr-12 05:00N 46°10' W 123°55'0 0.0
2018-Apr-12 04:30N 46°10' W 123°55'0 0.0
2018-Apr-12 04:01N 46°10' W 123°55'0 0.0
2018-Apr-12 03:31N 46°10' W 123°55'0 0.0
2018-Apr-12 03:00N 46°10' W 123°55'0 0.0
2018-Apr-12 02:30N 46°10' W 123°55'0 0.0
2018-Apr-12 02:00N 46°10' W 123°55'0 0.0
2018-Apr-12 01:30N 46°10' W 123°55'0 0.0
2018-Apr-12 00:52N 46°10' W 123°55'0 0.0
2018-Apr-12 00:30N 46°10' W 123°55'0 0.0
2018-Apr-12 00:00N 46°10' W 123°55'0 0.0
2018-Apr-11 23:30N 46°10' W 123°55'0 0.0
2018-Apr-11 23:00N 46°10' W 123°55'0 0.0
2018-Apr-11 22:30N 46°10' W 123°55'0 0.0
2018-Apr-11 22:00N 46°10' W 123°55'0 0.0
2018-Apr-11 21:30N 46°10' W 123°55'0 0.0
2018-Apr-11 21:00N 46°10' W 123°55'0 0.0
2018-Apr-11 20:30N 46°10' W 123°55'0 0.0
2018-Apr-11 20:00N 46°10' W 123°55'0 0.0
2018-Apr-11 19:30N 46°10' W 123°55'0 0.0
2018-Apr-11 19:00N 46°10' W 123°55'0 0.0
2018-Apr-11 18:30N 46°10' W 123°55'0 0.0
2018-Apr-11 18:00N 46°10' W 123°55'0 0.0
2018-Apr-11 17:30N 46°10' W 123°55'0 0.0
2018-Apr-11 17:00N 46°10' W 123°55'0 0.0
2018-Apr-11 16:30N 46°10' W 123°55'0 0.0
2018-Apr-11 16:00N 46°10' W 123°55'0 0.0
2018-Apr-11 15:31N 46°10' W 123°55'0 0.0
2018-Apr-11 15:00N 46°10' W 123°55'0 0.0
2018-Apr-11 14:30N 46°10' W 123°55'0 0.0
2018-Apr-11 14:00N 46°10' W 123°55'0 0.0
2018-Apr-11 13:30N 46°10' W 123°55'0 0.0
2018-Apr-11 13:00N 46°10' W 123°55'0 0.0
2018-Apr-11 12:31N 46°10' W 123°55'0 0.0
2018-Apr-11 12:00N 46°10' W 123°55'0 0.0
2018-Apr-11 11:30N 46°10' W 123°55'0 0.0
2018-Apr-11 11:00N 46°10' W 123°55'0 0.0
2018-Apr-11 10:30N 46°10' W 123°55'0 0.0
2018-Apr-11 10:00N 46°10' W 123°55'0 0.0
2018-Apr-11 09:30N 46°10' W 123°55'0 0.0
2018-Apr-11 09:00N 46°10' W 123°55'0 0.0
2018-Apr-11 08:30N 46°10' W 123°55'0 0.0
2018-Apr-11 08:01N 46°10' W 123°55'0 0.0
2018-Apr-11 07:30N 46°10' W 123°55'0 0.0
2018-Apr-11 07:00N 46°10' W 123°55'0 0.0
2018-Apr-11 06:30N 46°10' W 123°55'0 0.0
2018-Apr-11 06:00N 46°10' W 123°55'0 0.0
2018-Apr-11 05:30N 46°10' W 123°55'0 0.0
2018-Apr-11 05:00N 46°10' W 123°55'0 0.0
2018-Apr-11 04:30N 46°10' W 123°55'0 0.0
2018-Apr-11 04:00N 46°10' W 123°55'0 0.0
2018-Apr-11 03:30N 46°10' W 123°55'0 0.0
2018-Apr-11 03:00N 46°10' W 123°55'0 0.0
2018-Apr-11 02:30N 46°10' W 123°55'0 0.0
2018-Apr-11 02:00N 46°10' W 123°55'0 0.0
2018-Apr-11 01:26N 46°10' W 123°55'0 0.0
2018-Apr-11 00:47N 46°10' W 123°55'0 0.0
2018-Apr-11 00:30N 46°10' W 123°55'0 0.0
2018-Apr-11 00:00N 46°10' W 123°55'0 0.0
2018-Apr-10 23:31N 46°10' W 123°55'0 0.0
2018-Apr-10 23:01N 46°10' W 123°55'0 0.0
2018-Apr-10 22:30N 46°10' W 123°55'0 0.0
2018-Apr-10 22:00N 46°10' W 123°55'0 0.0
2018-Apr-10 21:30N 46°10' W 123°55'0 0.0
2018-Apr-10 21:00N 46°10' W 123°55'0 0.0
2018-Apr-10 20:30N 46°10' W 123°55'0 0.0
2018-Apr-10 20:00N 46°10' W 123°55'0 0.0
2018-Apr-10 19:31N 46°10' W 123°55'0 0.0
2018-Apr-10 18:56N 46°10' W 123°55'0 0.0
2018-Apr-10 18:30N 46°10' W 123°55'0 0.0
2018-Apr-10 18:01N 46°10' W 123°55'0 0.0
2018-Apr-10 17:30N 46°10' W 123°55'0 0.0
2018-Apr-10 17:00N 46°10' W 123°55'0 0.0
2018-Apr-10 16:30N 46°10' W 123°55'0 0.0
2018-Apr-10 16:00N 46°10' W 123°55'0 0.0
2018-Apr-10 15:30N 46°10' W 123°55'0 0.0
2018-Apr-10 15:00N 46°10' W 123°55'0 0.0
2018-Apr-10 14:30N 46°10' W 123°55'0 0.0
2018-Apr-10 14:00N 46°10' W 123°55'0 0.0
2018-Apr-10 13:30N 46°10' W 123°55'0 0.0
2018-Apr-10 13:00N 46°10' W 123°55'0 0.0
2018-Apr-10 12:30N 46°10' W 123°55'0 0.0
2018-Apr-10 11:57N 46°10' W 123°55'0 0.0
2018-Apr-10 11:30N 46°10' W 123°55'0 0.0
2018-Apr-10 11:00N 46°10' W 123°55'0 0.0
2018-Apr-10 10:30N 46°10' W 123°55'0 0.0
2018-Apr-10 09:55N 46°10' W 123°55'0 0.0
2018-Apr-10 09:30N 46°10' W 123°55'0 0.0
2018-Apr-10 09:00N 46°10' W 123°55'0 0.0
2018-Apr-10 08:30N 46°10' W 123°55'0 0.0
2018-Apr-10 08:00N 46°10' W 123°55'0 0.0
2018-Apr-10 07:30N 46°10' W 123°55'0 0.0
2018-Apr-10 07:00N 46°10' W 123°55'0 0.0
2018-Apr-10 06:30N 46°10' W 123°55'0 0.0
2018-Apr-10 06:00N 46°10' W 123°55'0 0.0
2018-Apr-10 05:30N 46°10' W 123°55'0 0.0
2018-Apr-10 04:57N 46°10' W 123°55'0 0.0
2018-Apr-10 04:31N 46°10' W 123°55'0 0.0
2018-Apr-10 03:54N 46°10' W 123°55'0 0.0
2018-Apr-10 03:30N 46°10' W 123°55'  

Dump ship's entire track history